Recent forum postings ...
Today
Change wake turbulence after filing FP
Yesterday
KLM-VA site "not responding", is my flight toast?
3 days ago
Fly KLM Mon CTL
2021-04-09
SCHEDULE FLIGHT BOEING 737
2021-04-08
Law and rules in KLM VA
2021-04-04
Flying a Tour.


 
Aircraft IdentFlightrulesType of Flight
NumberType of AircraftWake turbulenceEquipmentTransponder Type
Departure AerodromeDeparture Time
Cruising speedFlight level
Route




Destination AerodromeTotal EETAlternative Aerodrome
Other information

Explanation of the IVAO flightplan

(LIFR),

METAR

ERRORData not available

Sofia (LBSF), Bulgaria

METAR
LBSF 081430Z 27011KT 9999 FEW025 SCT050 BKN071 05/M05 Q1021 NOSIG

WINDW at 13 mph
VISIBILITY16 miles
CONDITIONS
CLOUDSmostly cloudy
TEMP41°F (5°C)
WIND CHILL34°F (1°C)
DEWPT23°F (-5°C)
HUMIDITY49%
BAROMETER1021 hPa (30.15 in Hg)

Registration TimeGroundspeedAltitudeTransponderHeadingLongitudeLatitudeOn ground
14:49 08-04-20210 kts15 ft200020512.2473241.79843Yes
14:520 kts15 ft200020512.2473241.79843Yes
14:550 kts15 ft200020512.2473241.79843Yes
14:580 kts15 ft200020512.2473241.79843Yes
15:010 kts15 ft200020512.2473241.79843Yes
15:040 kts15 ft200020512.2473241.79843Yes
15:070 kts15 ft200020512.2473241.79843Yes
15:100 kts15 ft700032812.2483741.79919Yes
15:1326 kts14 ft70006912.2572341.80391Yes
15:160 kts12 ft700024612.2684241.80935Yes
15:19234 kts6892 ft7000312.2393941.92185No